createdAt,value
2018-02-19T00:01:41.173Z,22.37
2018-02-19T00:04:07.492Z,22.47
2018-02-19T00:06:33.794Z,20.57
2018-02-19T00:09:00.096Z,21.30
2018-02-19T00:11:26.369Z,21.80
2018-02-19T00:13:52.641Z,21.33
2018-02-19T00:16:18.939Z,21.60
2018-02-19T00:18:45.203Z,20.53
2018-02-19T00:21:12.283Z,22.67
2018-02-19T00:23:38.546Z,21.60
2018-02-19T00:26:04.835Z,22.03
2018-02-19T00:28:31.133Z,22.90
2018-02-19T00:30:57.422Z,23.43
2018-02-19T00:33:23.717Z,28.10
2018-02-19T00:35:50.747Z,35.50
2018-02-19T00:38:17.781Z,34.63
2018-02-19T00:40:44.787Z,32.07
2018-02-19T00:43:11.088Z,28.80
2018-02-19T00:45:37.347Z,25.60
2018-02-19T00:48:04.490Z,25.43
2018-02-19T00:50:30.763Z,24.13
2018-02-19T00:52:57.062Z,24.53
2018-02-19T00:55:23.371Z,27.30
2018-02-19T00:57:49.715Z,27.10
2018-02-19T01:00:16.867Z,24.07
2018-02-19T01:02:43.259Z,25.23
2018-02-19T01:05:09.548Z,23.70
2018-02-19T01:07:35.841Z,24.33
2018-02-19T01:10:02.120Z,24.97
2018-02-19T01:12:28.440Z,24.00
2018-02-19T01:14:54.738Z,23.13
2018-02-19T01:17:21.030Z,25.20
2018-02-19T01:19:47.331Z,24.57
2018-02-19T01:22:13.592Z,25.30
2018-02-19T01:24:39.894Z,22.33
2018-02-19T01:27:06.179Z,23.97
2018-02-19T01:29:32.448Z,24.07
2018-02-19T01:31:58.738Z,25.20
2018-02-19T01:34:25.059Z,24.67
2018-02-19T01:36:53.979Z,22.53
2018-02-19T01:39:22.729Z,25.13
2018-02-19T01:41:50.942Z,23.13
2018-02-19T01:44:19.734Z,22.70
2018-02-19T01:46:46.019Z,23.57
2018-02-19T01:49:12.339Z,23.73
2018-02-19T01:51:38.628Z,21.53
2018-02-19T01:54:04.894Z,21.67
2018-02-19T01:56:31.246Z,23.27
2018-02-19T01:58:57.522Z,22.87
2018-02-19T02:01:23.819Z,21.53
2018-02-19T02:03:50.104Z,22.10
2018-02-19T02:06:17.112Z,21.40
2018-02-19T02:08:43.410Z,20.70
2018-02-19T02:11:09.691Z,19.93
2018-02-19T02:13:36.015Z,20.50
2018-02-19T02:16:02.318Z,21.00
2018-02-19T02:18:28.648Z,21.00
2018-02-19T02:20:54.990Z,20.97
2018-02-19T02:23:21.251Z,21.53
2018-02-19T02:25:47.549Z,20.77
2018-02-19T02:28:15.001Z,23.50
2018-02-19T02:30:42.052Z,21.43
2018-02-19T02:33:08.373Z,21.80
2018-02-19T02:35:34.692Z,23.23
2018-02-19T02:38:00.979Z,20.30
2018-02-19T02:40:27.275Z,20.37
2018-02-19T02:42:53.564Z,21.80
2018-02-19T02:45:19.884Z,22.67
2018-02-19T02:47:46.159Z,23.00
2018-02-19T02:50:12.458Z,23.03
2018-02-19T02:52:39.468Z,24.53
2018-02-19T02:55:05.740Z,21.73
2018-02-19T02:57:32.238Z,23.97
2018-02-19T02:59:58.522Z,22.47
2018-02-19T03:02:24.845Z,22.67
2018-02-19T03:04:51.866Z,23.97
2018-02-19T03:07:18.123Z,21.37
2018-02-19T03:09:44.471Z,23.77
2018-02-19T03:12:10.744Z,22.90
2018-02-19T03:14:37.035Z,23.10
2018-02-19T03:17:03.291Z,23.97
2018-02-19T03:19:29.598Z,22.13
2018-02-19T03:21:55.882Z,23.50
2018-02-19T03:24:22.898Z,23.87
2018-02-19T03:26:49.223Z,22.43
2018-02-19T03:29:15.495Z,23.73
2018-02-19T03:31:41.796Z,24.93
2018-02-19T03:34:08.248Z,25.33
2018-02-19T03:36:35.323Z,24.23
2018-02-19T03:39:02.412Z,24.80
2018-02-19T03:41:28.726Z,24.17
2018-02-19T03:43:55.068Z,25.03
2018-02-19T03:46:21.364Z,25.37
2018-02-19T03:48:47.639Z,25.57
2018-02-19T03:51:13.946Z,24.43
2018-02-19T03:53:40.230Z,24.90
2018-02-19T03:56:06.494Z,24.43
2018-02-19T03:58:32.795Z,24.67
2018-02-19T04:00:59.090Z,25.80
2018-02-19T04:03:26.110Z,24.37
2018-02-19T04:05:52.376Z,25.23
2018-02-19T04:08:18.634Z,25.77
2018-02-19T04:10:44.943Z,23.20
2018-02-19T04:13:11.215Z,24.97
2018-02-19T04:15:37.535Z,25.90
2018-02-19T04:18:03.826Z,27.27
2018-02-19T04:20:30.850Z,26.77
2018-02-19T04:22:57.882Z,24.00
2018-02-19T04:25:24.911Z,27.00
2018-02-19T04:27:51.910Z,23.57
2018-02-19T04:30:18.225Z,23.37
2018-02-19T04:32:44.526Z,26.27
2018-02-19T04:35:10.871Z,25.13
2018-02-19T04:37:37.182Z,25.40
2018-02-19T04:40:03.463Z,26.03
2018-02-19T04:42:29.772Z,24.63
2018-02-19T04:44:56.909Z,24.07
2018-02-19T04:47:23.210Z,26.83
2018-02-19T04:49:49.551Z,24.43
2018-02-19T04:52:15.828Z,26.17
2018-02-19T04:54:42.833Z,27.83
2018-02-19T04:57:09.179Z,26.27
2018-02-19T04:59:35.506Z,25.17
2018-02-19T05:02:01.796Z,26.40
2018-02-19T05:04:28.834Z,26.13
2018-02-19T05:06:55.118Z,24.30
2018-02-19T05:09:21.424Z,24.33
2018-02-19T05:11:47.711Z,25.27
2018-02-19T05:14:14.051Z,28.17
2018-02-19T05:16:40.334Z,27.50
2018-02-19T05:19:06.637Z,26.23
2018-02-19T05:21:32.933Z,27.77
2018-02-19T05:23:59.223Z,27.43
2018-02-19T05:26:25.554Z,26.43
2018-02-19T05:28:51.823Z,24.43
2018-02-19T05:31:18.085Z,28.33
2018-02-19T05:33:44.406Z,28.73
2018-02-19T05:36:10.745Z,26.57
2018-02-19T05:38:37.068Z,26.77
2018-02-19T05:41:03.350Z,28.53
2018-02-19T05:43:29.639Z,26.83
2018-02-19T05:45:55.963Z,25.17
2018-02-19T05:48:23.900Z,29.17
2018-02-19T05:50:50.272Z,28.30
2018-02-19T05:53:17.330Z,29.53
2018-02-19T05:55:43.631Z,27.40
2018-02-19T05:58:09.938Z,29.40
2018-02-19T06:00:38.883Z,28.60
2018-02-19T06:03:05.210Z,29.13
2018-02-19T06:05:31.614Z,30.03
2018-02-19T06:07:57.937Z,28.87
2018-02-19T06:10:24.281Z,29.93
2018-02-19T06:12:51.214Z,28.37
2018-02-19T06:15:17.745Z,30.13
2018-02-19T06:17:45.038Z,29.93
2018-02-19T06:20:12.113Z,29.03
2018-02-19T06:22:38.439Z,28.43
2018-02-19T06:25:04.738Z,29.27
2018-02-19T06:27:31.034Z,30.30
2018-02-19T06:29:57.338Z,28.70
2018-02-19T06:32:23.624Z,29.63
2018-02-19T06:34:49.962Z,31.23
2018-02-19T06:37:16.291Z,29.77
2018-02-19T06:39:42.686Z,32.07
2018-02-19T06:42:08.992Z,30.83
2018-02-19T06:44:35.619Z,29.77
2018-02-19T06:47:01.969Z,30.20
2018-02-19T06:49:28.239Z,28.43
2018-02-19T06:51:54.535Z,31.63
2018-02-19T06:54:20.816Z,30.07
2018-02-19T06:56:50.307Z,30.87
2018-02-19T06:59:18.792Z,31.90
2018-02-19T07:01:47.680Z,29.90
2018-02-19T07:04:16.163Z,28.80
2018-02-19T07:06:44.904Z,31.53
2018-02-19T07:09:14.600Z,29.57
2018-02-19T07:11:44.043Z,29.93
2018-02-19T07:14:10.326Z,28.77
2018-02-19T07:16:36.636Z,29.97
2018-02-19T07:19:02.897Z,32.63
2018-02-19T07:21:29.153Z,31.87
2018-02-19T07:23:55.646Z,29.67
2018-02-19T07:26:21.983Z,28.60
2018-02-19T07:28:49.032Z,27.17
2018-02-19T07:31:15.309Z,27.60
2018-02-19T07:33:41.682Z,30.40
2018-02-19T07:36:07.995Z,26.93
2018-02-19T07:38:34.285Z,28.80
2018-02-19T07:41:01.376Z,27.50
2018-02-19T07:43:27.661Z,29.73
2018-02-19T07:45:53.928Z,29.07
2018-02-19T07:48:20.967Z,28.73
2018-02-19T07:50:48.051Z,31.63
2018-02-19T07:53:14.338Z,28.57
2018-02-19T07:55:40.612Z,30.10
2018-02-19T07:58:06.897Z,31.47
2018-02-19T08:00:33.184Z,30.23
2018-02-19T08:02:59.437Z,28.67
2018-02-19T08:05:25.776Z,28.97
2018-02-19T08:07:52.100Z,29.40
2018-02-19T08:10:19.139Z,28.10
2018-02-19T08:12:45.453Z,29.93
2018-02-19T08:15:11.723Z,28.27
2018-02-19T08:17:38.010Z,28.50
2018-02-19T08:20:04.295Z,28.20
2018-02-19T08:22:31.338Z,27.80
2018-02-19T08:24:58.426Z,28.50
2018-02-19T08:27:24.693Z,25.90
2018-02-19T08:29:51.743Z,28.17
2018-02-19T08:32:18.001Z,27.40
2018-02-19T08:34:44.273Z,26.07
2018-02-19T08:37:10.614Z,26.87
2018-02-19T08:39:36.886Z,26.57
2018-02-19T08:42:03.954Z,26.60
2018-02-19T08:44:30.278Z,26.80
2018-02-19T08:46:56.548Z,24.23
2018-02-19T08:49:23.570Z,28.27
2018-02-19T08:51:50.578Z,26.90
2018-02-19T08:54:16.883Z,25.77
2018-02-19T08:56:43.153Z,24.67
2018-02-19T08:59:09.470Z,24.73
2018-02-19T09:01:35.761Z,29.67
2018-02-19T09:04:02.782Z,29.20
2018-02-19T09:06:29.074Z,25.27
2018-02-19T09:08:55.361Z,25.23
2018-02-19T09:11:21.693Z,26.37
2018-02-19T09:13:48.015Z,33.53
2018-02-19T09:16:14.298Z,25.53
2018-02-19T09:18:40.590Z,33.20
2018-02-19T09:21:07.623Z,28.17
2018-02-19T09:23:34.650Z,23.47
2018-02-19T09:26:00.934Z,23.53
2018-02-19T09:28:27.242Z,23.10
2018-02-19T09:30:53.506Z,22.63
2018-02-19T09:33:20.523Z,22.80
2018-02-19T09:35:46.800Z,25.43
2018-02-19T09:38:13.114Z,23.03
2018-02-19T09:40:39.419Z,22.37
2018-02-19T09:43:05.721Z,20.67
2018-02-19T09:45:31.990Z,19.43
2018-02-19T09:47:58.321Z,20.17
2018-02-19T09:50:25.345Z,20.20
2018-02-19T09:52:51.658Z,20.23
2018-02-19T09:55:18.147Z,18.93
2018-02-19T09:57:44.427Z,18.93
2018-02-19T10:00:10.739Z,19.10
2018-02-19T10:02:37.005Z,19.40
2018-02-19T10:05:03.309Z,20.07
2018-02-19T10:07:29.586Z,20.57
2018-02-19T10:09:56.606Z,20.23
2018-02-19T10:12:23.639Z,20.73
2018-02-19T10:14:50.647Z,19.93
2018-02-19T10:17:16.945Z,23.37
2018-02-19T10:19:43.211Z,18.57
2018-02-19T10:22:09.499Z,20.37
2018-02-19T10:24:35.794Z,20.60
2018-02-19T10:27:02.065Z,21.60
2018-02-19T10:29:28.386Z,20.43
2018-02-19T10:31:54.702Z,20.03
2018-02-19T10:34:20.984Z,21.53
2018-02-19T10:36:47.286Z,21.03
2018-02-19T10:39:13.571Z,21.93
2018-02-19T10:41:39.878Z,22.07
2018-02-19T10:44:07.034Z,21.67
2018-02-19T10:46:33.335Z,20.17
2018-02-19T10:48:59.775Z,21.67
2018-02-19T10:51:26.096Z,20.80
2018-02-19T10:53:52.410Z,21.67
2018-02-19T10:56:18.681Z,20.97
2018-02-19T10:58:44.982Z,20.80
2018-02-19T11:01:12.030Z,21.93
2018-02-19T11:03:39.061Z,20.47
2018-02-19T11:06:05.395Z,21.90
2018-02-19T11:08:31.678Z,18.87
2018-02-19T11:10:58.762Z,21.37
2018-02-19T11:13:25.086Z,20.83
2018-02-19T11:15:51.366Z,21.13
2018-02-19T11:18:17.667Z,20.87
2018-02-19T11:20:43.969Z,20.20
2018-02-19T11:23:11.011Z,21.03
2018-02-19T11:25:37.306Z,19.07
2018-02-19T11:28:04.319Z,20.20
2018-02-19T11:30:30.748Z,22.13
2018-02-19T11:32:57.040Z,20.57
2018-02-19T11:35:23.314Z,20.23
2018-02-19T11:37:49.611Z,21.13
2018-02-19T11:40:16.663Z,21.63
2018-02-19T11:42:43.054Z,18.50
2018-02-19T11:45:10.134Z,20.03
2018-02-19T11:47:36.430Z,20.70
2018-02-19T11:50:02.782Z,19.63
2018-02-19T11:52:29.114Z,19.13
2018-02-19T11:54:55.415Z,20.30
2018-02-19T11:57:21.702Z,20.90
2018-02-19T11:59:48.076Z,19.73
2018-02-19T12:02:14.353Z,21.20
2018-02-19T12:04:40.618Z,18.27
2018-02-19T12:07:06.915Z,20.63
2018-02-19T12:09:33.194Z,20.20
2018-02-19T12:11:59.477Z,20.97
2018-02-19T12:14:26.534Z,19.17
2018-02-19T12:16:52.815Z,20.73
2018-02-19T12:19:19.858Z,19.50
2018-02-19T12:21:46.143Z,19.70
2018-02-19T12:24:13.177Z,20.43
2018-02-19T12:26:39.473Z,20.60
2018-02-19T12:29:05.766Z,18.63
2018-02-19T12:31:32.128Z,19.33
2018-02-19T12:33:58.392Z,27.00
2018-02-19T12:36:24.669Z,20.50
2018-02-19T12:38:51.791Z,20.50
2018-02-19T12:41:18.105Z,19.77
2018-02-19T12:43:44.396Z,25.37
2018-02-19T12:46:10.682Z,26.07
2018-02-19T12:48:36.965Z,39.90
2018-02-19T12:51:04.018Z,23.50
2018-02-19T12:53:30.296Z,19.13
2018-02-19T12:55:56.606Z,37.80
2018-02-19T12:58:22.889Z,21.73
2018-02-19T13:00:49.891Z,19.07
2018-02-19T13:03:16.202Z,29.60
2018-02-19T13:05:42.564Z,20.90
2018-02-19T13:08:09.054Z,20.33
2018-02-19T13:10:35.483Z,20.00
2018-02-19T13:13:01.766Z,20.27
2018-02-19T13:15:28.817Z,19.40
2018-02-19T13:17:55.082Z,19.67
2018-02-19T13:20:21.390Z,18.40
2018-02-19T13:22:47.645Z,17.83
2018-02-19T13:25:14.658Z,19.30
2018-02-19T13:27:40.966Z,17.97
2018-02-19T13:30:07.360Z,18.27
2018-02-19T13:32:33.622Z,18.13
2018-02-19T13:35:00.674Z,18.50
2018-02-19T13:37:26.940Z,17.80
2018-02-19T13:39:53.251Z,17.73
2018-02-19T13:42:19.530Z,19.60
2018-02-19T13:44:46.583Z,19.37
2018-02-19T13:47:12.931Z,18.13
2018-02-19T13:49:39.217Z,19.50
2018-02-19T13:52:05.479Z,16.93
2018-02-19T13:54:32.847Z,19.23
2018-02-19T13:56:59.162Z,19.27
2018-02-19T13:59:25.454Z,19.60
2018-02-19T14:01:52.490Z,19.57
2018-02-19T14:04:19.509Z,20.60
2018-02-19T14:06:45.810Z,21.33
2018-02-19T14:09:12.850Z,19.87
2018-02-19T14:11:39.155Z,19.80
2018-02-19T14:14:05.468Z,21.33
2018-02-19T14:16:31.746Z,21.17
2018-02-19T14:18:58.097Z,21.57
2018-02-19T14:21:24.385Z,22.53
2018-02-19T14:23:50.650Z,20.93
2018-02-19T14:26:17.706Z,20.83
2018-02-19T14:28:44.026Z,18.90
2018-02-19T14:31:10.333Z,20.47
2018-02-19T14:33:36.629Z,22.33
2018-02-19T14:36:03.718Z,22.83
2018-02-19T14:38:30.082Z,21.67
2018-02-19T14:40:56.389Z,21.57
2018-02-19T14:43:22.694Z,21.13
2018-02-19T14:45:48.958Z,21.07
2018-02-19T14:48:15.284Z,21.17
2018-02-19T14:50:41.582Z,22.97
2018-02-19T14:53:07.842Z,20.60
2018-02-19T14:55:34.158Z,20.90
2018-02-19T14:58:00.550Z,20.30
2018-02-19T15:00:26.929Z,20.50
2018-02-19T15:02:53.422Z,21.10
2018-02-19T15:05:19.694Z,20.97
2018-02-19T15:07:46.050Z,21.77
2018-02-19T15:10:12.389Z,22.33
2018-02-19T15:12:38.855Z,21.80
2018-02-19T15:15:05.250Z,21.80
2018-02-19T15:17:31.615Z,24.23
2018-02-19T15:19:57.924Z,20.63
2018-02-19T15:22:24.273Z,23.80
2018-02-19T15:24:50.569Z,22.50
2018-02-19T15:27:16.870Z,22.10
2018-02-19T15:29:43.176Z,21.13
2018-02-19T15:32:09.483Z,22.23
2018-02-19T15:34:35.887Z,23.23
2018-02-19T15:37:02.181Z,21.23
2018-02-19T15:39:28.541Z,24.67
2018-02-19T15:41:58.402Z,29.00
2018-02-19T15:44:34.179Z,26.73
2018-02-19T15:47:00.833Z,25.27
2018-02-19T15:49:27.706Z,24.83
2018-02-19T15:51:55.874Z,22.27
2018-02-19T15:54:22.524Z,23.70
2018-02-19T15:56:51.398Z,23.03
2018-02-19T15:59:17.691Z,22.73
2018-02-19T16:01:45.046Z,22.00
2018-02-19T16:04:11.695Z,23.47
2018-02-19T16:06:44.279Z,21.80
2018-02-19T16:09:12.114Z,21.50
2018-02-19T16:11:39.132Z,20.07
2018-02-19T16:14:05.435Z,23.53
2018-02-19T16:16:31.766Z,21.07
2018-02-19T16:18:58.155Z,22.33
2018-02-19T16:21:24.422Z,22.33
2018-02-19T16:23:50.701Z,22.90
2018-02-19T16:26:17.012Z,23.70
2018-02-19T16:28:43.292Z,25.43
2018-02-19T16:31:09.627Z,22.50
2018-02-19T16:33:35.992Z,21.33
2018-02-19T16:36:02.289Z,22.87
2018-02-19T16:38:28.594Z,25.00
2018-02-19T16:40:54.870Z,23.87
2018-02-19T16:43:21.173Z,22.43
2018-02-19T16:45:47.452Z,22.73
2018-02-19T16:48:13.802Z,20.90
2018-02-19T16:50:40.159Z,21.77
2018-02-19T16:53:06.493Z,21.73
2018-02-19T16:55:32.794Z,23.27
2018-02-19T16:57:59.093Z,24.40
2018-02-19T17:00:25.390Z,19.57
2018-02-19T17:02:51.693Z,21.53
2018-02-19T17:05:18.722Z,21.90
2018-02-19T17:07:45.774Z,22.20
2018-02-19T17:10:12.043Z,22.33
2018-02-19T17:12:38.302Z,22.30
2018-02-19T17:15:04.607Z,20.23
2018-02-19T17:17:30.859Z,23.10
2018-02-19T17:19:57.189Z,21.60
2018-02-19T17:22:23.469Z,20.20
2018-02-19T17:24:49.749Z,21.53
2018-02-19T17:27:16.142Z,24.47
2018-02-19T17:29:42.408Z,22.30
2018-02-19T17:32:08.752Z,21.53
2018-02-19T17:34:35.074Z,23.27
2018-02-19T17:37:01.391Z,22.93
2018-02-19T17:39:27.680Z,21.67
2018-02-19T17:41:53.969Z,23.63
2018-02-19T17:44:21.024Z,23.13
2018-02-19T17:46:47.319Z,24.33
2018-02-19T17:49:14.934Z,23.50
2018-02-19T17:51:42.014Z,24.03
2018-02-19T17:54:08.368Z,20.53
2018-02-19T17:56:36.120Z,21.73
2018-02-19T17:59:02.761Z,21.97
2018-02-19T18:01:29.168Z,23.23
2018-02-19T18:03:55.435Z,22.57
2018-02-19T18:06:21.786Z,22.57
2018-02-19T18:08:48.131Z,21.33
2018-02-19T18:11:15.507Z,23.00
2018-02-19T18:13:41.883Z,23.20
2018-02-19T18:16:08.411Z,21.93
2018-02-19T18:18:34.955Z,23.70
2018-02-19T18:21:02.112Z,22.17
2018-02-19T18:23:28.533Z,23.27
2018-02-19T18:25:54.883Z,21.07
2018-02-19T18:28:21.258Z,21.30
2018-02-19T18:30:47.658Z,22.83
2018-02-19T18:33:14.736Z,22.20
2018-02-19T18:35:41.088Z,25.33
2018-02-19T18:38:07.583Z,23.07
2018-02-19T18:40:33.934Z,25.27
2018-02-19T18:43:00.254Z,22.07
2018-02-19T18:45:28.552Z,37.33
2018-02-19T18:47:54.836Z,36.60
2018-02-19T18:50:22.313Z,31.07
2018-02-19T18:52:48.639Z,27.07
2018-02-19T18:55:16.087Z,24.17
2018-02-19T18:57:42.383Z,25.53
2018-02-19T19:00:08.676Z,26.90
2018-02-19T19:02:34.974Z,26.30
2018-02-19T19:05:02.070Z,27.30
2018-02-19T19:07:40.623Z,32.33
2018-02-19T19:10:19.429Z,29.60
2018-02-19T19:12:46.475Z,27.33
2018-02-19T19:15:12.879Z,26.47
2018-02-19T19:17:39.886Z,32.00
2018-02-19T19:20:06.292Z,38.43
2018-02-19T19:22:32.591Z,45.07
2018-02-19T19:24:58.916Z,41.37
2018-02-19T19:27:25.187Z,33.53
2018-02-19T19:29:51.530Z,34.43
2018-02-19T19:32:18.579Z,27.10
2018-02-19T19:34:44.858Z,23.50
2018-02-19T19:37:11.154Z,26.07
2018-02-19T19:39:38.179Z,25.00
2018-02-19T19:42:05.207Z,26.50
2018-02-19T19:44:31.493Z,25.13
2018-02-19T19:46:57.837Z,25.60
2018-02-19T19:49:24.151Z,25.20
2018-02-19T19:51:50.584Z,24.43
2018-02-19T19:54:17.642Z,25.60
2018-02-19T19:56:43.969Z,24.57
2018-02-19T19:59:10.261Z,24.60
2018-02-19T20:01:36.630Z,24.90
2018-02-19T20:04:02.937Z,24.53
2018-02-19T20:06:29.196Z,24.93
2018-02-19T20:08:56.232Z,22.40
2018-02-19T20:11:23.327Z,27.47
2018-02-19T20:13:49.656Z,25.67
2018-02-19T20:16:15.947Z,32.77
2018-02-19T20:18:42.213Z,34.63
2018-02-19T20:21:09.326Z,33.73
2018-02-19T20:23:35.640Z,29.07
2018-02-19T20:26:01.958Z,29.80
2018-02-19T20:28:28.250Z,29.47
2018-02-19T20:30:54.541Z,32.57
2018-02-19T20:33:21.592Z,30.13
2018-02-19T20:35:47.860Z,31.33
2018-02-19T20:38:14.912Z,30.83
2018-02-19T20:40:41.252Z,27.30
2018-02-19T20:43:07.531Z,28.33
2018-02-19T20:45:34.606Z,27.17
2018-02-19T20:48:00.915Z,25.90
2018-02-19T20:50:27.201Z,25.93
2018-02-19T20:52:53.551Z,25.70
2018-02-19T20:55:20.246Z,25.77
2018-02-19T20:57:46.702Z,27.73
2018-02-19T21:00:13.096Z,26.13
2018-02-19T21:02:40.327Z,25.77
2018-02-19T21:05:06.698Z,25.07
2018-02-19T21:07:33.718Z,27.63
2018-02-19T21:10:00.023Z,28.70
2018-02-19T21:12:26.281Z,26.73
2018-02-19T21:14:53.318Z,27.27
2018-02-19T21:17:19.585Z,28.50
2018-02-19T21:19:45.899Z,29.33
2018-02-19T21:22:12.197Z,30.30
2018-02-19T21:24:38.518Z,29.13
2018-02-19T21:27:04.845Z,26.80
2018-02-19T21:29:31.118Z,25.73
2018-02-19T21:31:57.387Z,27.67
2018-02-19T21:34:23.824Z,26.77
2018-02-19T21:36:50.899Z,27.13
2018-02-19T21:39:17.960Z,27.33
2018-02-19T21:41:44.446Z,27.10
2018-02-19T21:44:10.894Z,26.40
2018-02-19T21:46:37.267Z,26.83
2018-02-19T21:49:04.383Z,25.43
2018-02-19T21:51:30.712Z,24.97
2018-02-19T21:53:57.902Z,26.23
2018-02-19T21:56:24.315Z,25.17
2018-02-19T21:58:50.760Z,24.97
2018-02-19T22:01:17.181Z,26.40
2018-02-19T22:03:43.607Z,26.47
2018-02-19T22:06:09.894Z,28.30
2018-02-19T22:08:36.207Z,26.57
2018-02-19T22:11:02.498Z,29.27
2018-02-19T22:13:28.788Z,26.43
2018-02-19T22:15:55.182Z,27.53
2018-02-19T22:18:21.461Z,31.43
2018-02-19T22:20:47.726Z,30.30
2018-02-19T22:23:14.762Z,33.00
2018-02-19T22:25:41.929Z,33.13
2018-02-19T22:28:08.287Z,30.97
2018-02-19T22:30:34.587Z,29.80
2018-02-19T22:33:00.885Z,29.73
2018-02-19T22:35:29.016Z,30.27
2018-02-19T22:37:56.856Z,30.43
2018-02-19T22:40:24.955Z,30.40
2018-02-19T22:42:51.395Z,30.70
2018-02-19T22:45:17.710Z,27.67
2018-02-19T22:47:44.259Z,29.37
2018-02-19T22:50:10.575Z,29.47
2018-02-19T22:52:36.987Z,29.73
2018-02-19T22:55:03.273Z,27.97
2018-02-19T22:57:29.627Z,27.70
2018-02-19T22:59:56.654Z,29.27
2018-02-19T23:02:22.940Z,30.70
2018-02-19T23:04:49.286Z,29.23
2018-02-19T23:07:15.558Z,30.03
2018-02-19T23:09:41.886Z,29.80
2018-02-19T23:12:08.168Z,27.70
2018-02-19T23:14:34.439Z,28.30
2018-02-19T23:17:01.502Z,28.73
2018-02-19T23:19:28.518Z,27.50
2018-02-19T23:21:55.617Z,28.60
2018-02-19T23:24:21.895Z,27.13
2018-02-19T23:26:48.170Z,25.97
2018-02-19T23:29:14.457Z,25.33
2018-02-19T23:31:40.726Z,24.90
2018-02-19T23:34:07.737Z,27.27
2018-02-19T23:36:34.782Z,27.40
2018-02-19T23:39:01.824Z,25.83
2018-02-19T23:41:28.916Z,27.07
2018-02-19T23:43:55.194Z,26.80
2018-02-19T23:46:21.490Z,27.83
2018-02-19T23:48:48.490Z,30.37
2018-02-19T23:51:14.814Z,29.13
2018-02-19T23:53:41.109Z,29.53
2018-02-19T23:56:07.378Z,28.03
2018-02-19T23:58:33.685Z,29.47
